sensor_id;sensor_type;location;lat;lon;timestamp;pressure;altitude;pressure_sealevel;temperature;humidity
68230;BME280;55048;52.220;5.160;2023-03-19T00:00:11;100841.22;;;12.68;81.31
68230;BME280;55048;52.220;5.160;2023-03-19T00:02:37;100899.78;;;13.01;81.72
68230;BME280;55048;52.220;5.160;2023-03-19T00:05:04;100852.47;;;12.70;81.78
68230;BME280;55048;52.220;5.160;2023-03-19T00:07:29;100905.81;;;12.92;82.02
68230;BME280;55048;52.220;5.160;2023-03-19T00:09:55;100853.47;;;12.64;82.59
68230;BME280;55048;52.220;5.160;2023-03-19T00:12:20;100896.69;;;12.88;82.53
68230;BME280;55048;52.220;5.160;2023-03-19T00:14:46;100836.47;;;12.48;82.40
68230;BME280;55048;52.220;5.160;2023-03-19T00:17:11;100893.22;;;12.87;82.06
68230;BME280;55048;52.220;5.160;2023-03-19T00:19:37;100941.13;;;13.21;82.32
68230;BME280;55048;52.220;5.160;2023-03-19T00:22:02;100868.78;;;12.73;82.13
68230;BME280;55048;52.220;5.160;2023-03-19T00:24:28;100903.06;;;12.87;82.20
68230;BME280;55048;52.220;5.160;2023-03-19T00:26:54;100872.06;;;12.59;82.03
68230;BME280;55048;52.220;5.160;2023-03-19T00:29:20;100896.22;;;12.69;82.49
68230;BME280;55048;52.220;5.160;2023-03-19T00:31:47;100952.22;;;13.13;82.37
68230;BME280;55048;52.220;5.160;2023-03-19T00:34:12;100770.78;;;11.98;82.26
68230;BME280;55048;52.220;5.160;2023-03-19T00:36:38;100919.19;;;12.92;82.95
68230;BME280;55048;52.220;5.160;2023-03-19T00:39:04;100951.91;;;13.09;82.76
68230;BME280;55048;52.220;5.160;2023-03-19T00:41:33;100931.69;;;12.91;82.86
68230;BME280;55048;52.220;5.160;2023-03-19T00:44:00;100930.66;;;12.92;82.71
68230;BME280;55048;52.220;5.160;2023-03-19T00:46:28;100661.56;;;11.20;83.76
68230;BME280;55048;52.220;5.160;2023-03-19T00:48:54;100906.63;;;12.70;82.83
68230;BME280;55048;52.220;5.160;2023-03-19T00:51:22;100770.09;;;11.69;82.75
68230;BME280;55048;52.220;5.160;2023-03-19T00:53:47;100912.66;;;12.83;82.90
68230;BME280;55048;52.220;5.160;2023-03-19T00:56:14;100771.63;;;11.65;82.78
68230;BME280;55048;52.220;5.160;2023-03-19T00:58:39;100682.75;;;11.32;82.96
68230;BME280;55048;52.220;5.160;2023-03-19T01:01:06;100962.84;;;13.08;83.31
68230;BME280;55048;52.220;5.160;2023-03-19T01:03:32;100546.19;;;10.37;82.94
68230;BME280;55048;52.220;5.160;2023-03-19T01:05:58;100925.72;;;12.62;83.42
68230;BME280;55048;52.220;5.160;2023-03-19T01:08:23;100914.16;;;12.73;83.19
68230;BME280;55048;52.220;5.160;2023-03-19T01:10:49;100952.81;;;12.93;83.13
68230;BME280;55048;52.220;5.160;2023-03-19T01:13:15;100869.22;;;12.43;83.27
68230;BME280;55048;52.220;5.160;2023-03-19T01:15:41;100967.06;;;13.03;83.63
68230;BME280;55048;52.220;5.160;2023-03-19T01:18:09;100828.56;;;12.14;83.43
68230;BME280;55048;52.220;5.160;2023-03-19T01:20:35;100937.72;;;12.82;83.46
68230;BME280;55048;52.220;5.160;2023-03-19T01:23:02;100973.91;;;12.94;83.56
68230;BME280;55048;52.220;5.160;2023-03-19T01:25:28;100959.44;;;12.90;83.85
68230;BME280;55048;52.220;5.160;2023-03-19T01:28:00;100969.44;;;13.00;83.61
68230;BME280;55048;52.220;5.160;2023-03-19T01:30:26;100926.31;;;12.64;83.59
68230;BME280;55048;52.220;5.160;2023-03-19T01:33:10;100926.06;;;12.66;83.64
68230;BME280;55048;52.220;5.160;2023-03-19T01:35:45;100825.72;;;11.99;83.43
68230;BME280;55048;52.220;5.160;2023-03-19T01:38:12;100910.59;;;12.46;83.82
68230;BME280;55048;52.220;5.160;2023-03-19T01:40:46;100940.19;;;12.66;83.86
68230;BME280;55048;52.220;5.160;2023-03-19T01:43:23;100915.34;;;12.44;84.41
68230;BME280;55048;52.220;5.160;2023-03-19T01:49:04;100827.91;;;11.85;83.92
68230;BME280;55048;52.220;5.160;2023-03-19T01:51:35;100953.47;;;12.61;83.75
68230;BME280;55048;52.220;5.160;2023-03-19T01:54:16;100953.97;;;12.58;83.92
68230;BME280;55048;52.220;5.160;2023-03-19T01:56:54;100964.28;;;12.71;83.88
68230;BME280;55048;52.220;5.160;2023-03-19T01:59:52;100964.22;;;12.66;84.03
68230;BME280;55048;52.220;5.160;2023-03-19T02:02:28;100965.75;;;12.62;84.65
68230;BME280;55048;52.220;5.160;2023-03-19T02:05:06;100978.97;;;12.52;84.86
68230;BME280;55048;52.220;5.160;2023-03-19T02:07:34;100874.25;;;11.84;84.57
68230;BME280;55048;52.220;5.160;2023-03-19T02:10:03;100939.16;;;12.29;84.46
68230;BME280;55048;52.220;5.160;2023-03-19T02:12:31;100942.00;;;12.22;84.29
68230;BME280;55048;52.220;5.160;2023-03-19T02:14:57;100943.53;;;12.18;84.40
68230;BME280;55048;52.220;5.160;2023-03-19T02:17:22;100976.41;;;12.40;84.47
68230;BME280;55048;52.220;5.160;2023-03-19T02:22:30;100916.56;;;11.97;84.74
68230;BME280;55048;52.220;5.160;2023-03-19T02:25:09;100975.50;;;12.35;85.33
68230;BME280;55048;52.220;5.160;2023-03-19T02:27:37;100973.41;;;12.20;84.95
68230;BME280;55048;52.220;5.160;2023-03-19T02:32:47;100857.53;;;11.38;85.20
68230;BME280;55048;52.220;5.160;2023-03-19T02:35:13;100850.66;;;11.26;85.29
68230;BME280;55048;52.220;5.160;2023-03-19T02:37:38;100878.50;;;11.52;85.24
68230;BME280;55048;52.220;5.160;2023-03-19T02:40:32;100982.63;;;12.12;85.63
68230;BME280;55048;52.220;5.160;2023-03-19T02:42:58;100944.00;;;11.81;85.95
68230;BME280;55048;52.220;5.160;2023-03-19T02:45:27;100988.69;;;11.91;86.64
68230;BME280;55048;52.220;5.160;2023-03-19T02:47:54;100946.16;;;11.67;86.48
68230;BME280;55048;52.220;5.160;2023-03-19T02:50:20;100998.72;;;12.00;86.33
68230;BME280;55048;52.220;5.160;2023-03-19T02:52:45;100926.56;;;11.57;86.21
68230;BME280;55048;52.220;5.160;2023-03-19T02:55:13;100947.13;;;11.78;86.32
68230;BME280;55048;52.220;5.160;2023-03-19T02:57:38;100927.19;;;11.64;86.30
68230;BME280;55048;52.220;5.160;2023-03-19T03:00:05;101007.44;;;12.13;86.57
68230;BME280;55048;52.220;5.160;2023-03-19T03:02:32;100989.09;;;11.99;86.83
68230;BME280;55048;52.220;5.160;2023-03-19T03:04:57;100861.94;;;11.16;86.57
68230;BME280;55048;52.220;5.160;2023-03-19T03:07:24;100933.81;;;11.61;86.61
68230;BME280;55048;52.220;5.160;2023-03-19T03:09:50;100941.41;;;11.69;86.49
68230;BME280;55048;52.220;5.160;2023-03-19T03:12:15;100979.91;;;11.90;86.80
68230;BME280;55048;52.220;5.160;2023-03-19T03:14:41;100851.41;;;11.09;86.69
68230;BME280;55048;52.220;5.160;2023-03-19T03:17:06;101000.97;;;12.09;86.48
68230;BME280;55048;52.220;5.160;2023-03-19T03:19:33;100965.69;;;11.85;86.49
68230;BME280;55048;52.220;5.160;2023-03-19T03:21:59;100949.16;;;11.71;86.41
68230;BME280;55048;52.220;5.160;2023-03-19T03:24:25;100991.53;;;12.01;86.49
68230;BME280;55048;52.220;5.160;2023-03-19T03:26:51;100928.97;;;11.58;86.06
68230;BME280;55048;52.220;5.160;2023-03-19T03:29:18;100962.44;;;11.83;86.14
68230;BME280;55048;52.220;5.160;2023-03-19T03:31:43;100988.44;;;11.92;86.08
68230;BME280;55048;52.220;5.160;2023-03-19T03:34:09;101008.81;;;11.98;86.16
68230;BME280;55048;52.220;5.160;2023-03-19T03:36:35;100889.91;;;11.18;86.13
68230;BME280;55048;52.220;5.160;2023-03-19T03:39:01;100953.50;;;11.60;86.00
68230;BME280;55048;52.220;5.160;2023-03-19T03:41:26;100947.00;;;11.39;86.19
68230;BME280;55048;52.220;5.160;2023-03-19T03:43:52;100990.75;;;11.72;85.84
68230;BME280;55048;52.220;5.160;2023-03-19T03:46:17;100999.69;;;11.66;86.03
68230;BME280;55048;52.220;5.160;2023-03-19T03:48:44;100999.78;;;11.71;86.02
68230;BME280;55048;52.220;5.160;2023-03-19T03:51:10;100993.44;;;11.60;85.73
68230;BME280;55048;52.220;5.160;2023-03-19T03:53:35;101006.63;;;11.67;85.80
68230;BME280;55048;52.220;5.160;2023-03-19T03:56:02;100925.13;;;11.09;85.79
68230;BME280;55048;52.220;5.160;2023-03-19T03:58:28;100980.56;;;11.40;85.72
68230;BME280;55048;52.220;5.160;2023-03-19T04:00:54;101003.88;;;11.62;85.44
68230;BME280;55048;52.220;5.160;2023-03-19T04:03:21;100977.72;;;11.30;85.76
68230;BME280;55048;52.220;5.160;2023-03-19T04:05:48;100642.66;;;9.17;85.67
68230;BME280;55048;52.220;5.160;2023-03-19T04:08:14;100760.81;;;9.90;85.74
68230;BME280;55048;52.220;5.160;2023-03-19T04:10:41;100952.91;;;11.13;85.74
68230;BME280;55048;52.220;5.160;2023-03-19T04:13:08;100808.09;;;10.16;85.64
68230;BME280;55048;52.220;5.160;2023-03-19T04:15:34;100539.34;;;8.40;85.87
68230;BME280;55048;52.220;5.160;2023-03-19T04:18:00;100876.03;;;10.47;86.21
68230;BME280;55048;52.220;5.160;2023-03-19T04:20:26;101003.72;;;11.11;86.13
68230;BME280;55048;52.220;5.160;2023-03-19T04:22:51;100995.13;;;11.21;86.27
68230;BME280;55048;52.220;5.160;2023-03-19T04:25:17;100818.19;;;10.03;86.04
68230;BME280;55048;52.220;5.160;2023-03-19T04:27:44;100957.94;;;10.97;86.17
68230;BME280;55048;52.220;5.160;2023-03-19T04:30:10;100912.66;;;10.69;85.85
68230;BME280;55048;52.220;5.160;2023-03-19T04:32:36;100907.00;;;10.54;85.86
68230;BME280;55048;52.220;5.160;2023-03-19T04:35:02;100961.28;;;10.93;85.75
68230;BME280;55048;52.220;5.160;2023-03-19T04:37:28;101009.78;;;11.23;85.80
68230;BME280;55048;52.220;5.160;2023-03-19T04:39:54;101009.78;;;11.23;85.60
68230;BME280;55048;52.220;5.160;2023-03-19T04:42:20;100756.00;;;9.52;85.51
68230;BME280;55048;52.220;5.160;2023-03-19T04:45:14;100987.66;;;11.06;85.72
68230;BME280;55048;52.220;5.160;2023-03-19T04:47:41;100874.44;;;10.23;85.49
68230;BME280;55048;52.220;5.160;2023-03-19T04:50:08;100966.00;;;11.03;85.53
68230;BME280;55048;52.220;5.160;2023-03-19T04:52:34;100994.66;;;11.24;85.51
68230;BME280;55048;52.220;5.160;2023-03-19T04:55:03;101008.19;;;11.22;85.96
68230;BME280;55048;52.220;5.160;2023-03-19T04:57:33;100985.31;;;11.10;86.11
68230;BME280;55048;52.220;5.160;2023-03-19T04:59:59;100959.78;;;10.85;85.93
68230;BME280;55048;52.220;5.160;2023-03-19T05:02:25;100940.75;;;10.65;85.77
68230;BME280;55048;52.220;5.160;2023-03-19T05:04:52;100980.16;;;10.80;85.60
68230;BME280;55048;52.220;5.160;2023-03-19T05:07:18;100961.91;;;10.71;85.59
68230;BME280;55048;52.220;5.160;2023-03-19T05:09:44;100993.22;;;10.93;85.92
68230;BME280;55048;52.220;5.160;2023-03-19T05:12:11;100808.50;;;9.61;85.50
68230;BME280;55048;52.220;5.160;2023-03-19T05:14:42;101001.91;;;10.77;85.78
68230;BME280;55048;52.220;5.160;2023-03-19T05:17:16;100960.53;;;10.57;85.67
68230;BME280;55048;52.220;5.160;2023-03-19T05:19:51;100883.47;;;9.99;86.17
68230;BME280;55048;52.220;5.160;2023-03-19T05:22:17;101054.28;;;10.99;86.32
68230;BME280;55048;52.220;5.160;2023-03-19T05:24:44;100994.66;;;10.48;86.52
68230;BME280;55048;52.220;5.160;2023-03-19T05:27:10;100984.72;;;10.56;86.53
68230;BME280;55048;52.220;5.160;2023-03-19T05:29:42;101027.03;;;10.69;87.17
68230;BME280;55048;52.220;5.160;2023-03-19T05:32:23;100993.16;;;10.53;87.26
68230;BME280;55048;52.220;5.160;2023-03-19T05:34:49;100916.03;;;10.06;87.26
68230;BME280;55048;52.220;5.160;2023-03-19T05:37:15;100998.94;;;10.50;87.75
68230;BME280;55048;52.220;5.160;2023-03-19T05:39:44;101003.78;;;10.29;89.25
68230;BME280;55048;52.220;5.160;2023-03-19T05:42:09;101029.69;;;10.45;89.04
68230;BME280;55048;52.220;5.160;2023-03-19T05:44:35;100968.97;;;10.07;88.51
68230;BME280;55048;52.220;5.160;2023-03-19T05:47:20;100856.91;;;9.22;88.65
68230;BME280;55048;52.220;5.160;2023-03-19T05:49:51;100819.63;;;9.05;88.45
68230;BME280;55048;52.220;5.160;2023-03-19T05:52:17;101076.75;;;10.57;89.20
68230;BME280;55048;52.220;5.160;2023-03-19T05:54:43;100834.06;;;8.90;89.59
68230;BME280;55048;52.220;5.160;2023-03-19T05:57:18;100987.66;;;9.89;89.54
68230;BME280;55048;52.220;5.160;2023-03-19T06:00:10;100930.53;;;9.56;89.96
68230;BME280;55048;52.220;5.160;2023-03-19T06:02:36;101053.97;;;10.37;89.69
68230;BME280;55048;52.220;5.160;2023-03-19T06:05:22;101088.44;;;10.56;89.63
68230;BME280;55048;52.220;5.160;2023-03-19T06:07:50;101086.81;;;10.66;89.37
68230;BME280;55048;52.220;5.160;2023-03-19T06:10:26;101041.13;;;10.34;89.04
68230;BME280;55048;52.220;5.160;2023-03-19T06:12:54;101000.63;;;10.09;88.65
68230;BME280;55048;52.220;5.160;2023-03-19T06:15:47;101048.06;;;10.47;88.64
68230;BME280;55048;52.220;5.160;2023-03-19T06:18:27;101069.81;;;10.56;88.53
68230;BME280;55048;52.220;5.160;2023-03-19T06:20:53;101065.06;;;10.58;88.28
68230;BME280;55048;52.220;5.160;2023-03-19T06:23:18;101068.66;;;10.52;88.71
68230;BME280;55048;52.220;5.160;2023-03-19T06:25:44;101097.13;;;10.75;88.53
68230;BME280;55048;52.220;5.160;2023-03-19T06:28:10;101030.44;;;10.22;88.54
68230;BME280;55048;52.220;5.160;2023-03-19T06:30:38;100864.72;;;9.05;88.30
68230;BME280;55048;52.220;5.160;2023-03-19T06:33:21;100960.88;;;9.60;87.94
68230;BME280;55048;52.220;5.160;2023-03-19T06:35:49;100886.38;;;9.02;88.20
68230;BME280;55048;52.220;5.160;2023-03-19T06:38:15;101029.72;;;9.74;90.18
68230;BME280;55048;52.220;5.160;2023-03-19T06:40:40;101131.53;;;10.46;88.73
68230;BME280;55048;52.220;5.160;2023-03-19T06:43:06;101036.94;;;9.85;89.41
68230;BME280;55048;52.220;5.160;2023-03-19T06:45:32;101131.16;;;10.31;90.08
68230;BME280;55048;52.220;5.160;2023-03-19T06:47:58;101143.78;;;10.35;89.10
68230;BME280;55048;52.220;5.160;2023-03-19T06:50:23;101146.88;;;10.32;89.66
68230;BME280;55048;52.220;5.160;2023-03-19T06:52:49;101167.34;;;10.32;89.61
68230;BME280;55048;52.220;5.160;2023-03-19T06:55:14;101148.38;;;10.28;89.65
68230;BME280;55048;52.220;5.160;2023-03-19T06:57:40;100953.06;;;9.05;89.52
68230;BME280;55048;52.220;5.160;2023-03-19T07:00:06;101155.16;;;10.24;90.09
68230;BME280;55048;52.220;5.160;2023-03-19T07:02:34;101170.00;;;10.32;91.05
68230;BME280;55048;52.220;5.160;2023-03-19T07:05:00;100992.16;;;9.28;90.18
68230;BME280;55048;52.220;5.160;2023-03-19T07:07:25;101128.09;;;9.97;91.03
68230;BME280;55048;52.220;5.160;2023-03-19T07:09:50;101127.59;;;9.88;90.61
68230;BME280;55048;52.220;5.160;2023-03-19T07:12:16;101176.50;;;10.36;90.43
68230;BME280;55048;52.220;5.160;2023-03-19T07:14:41;101134.28;;;10.09;90.04
68230;BME280;55048;52.220;5.160;2023-03-19T07:17:07;101112.53;;;10.01;90.05
68230;BME280;55048;52.220;5.160;2023-03-19T07:19:32;101151.59;;;10.30;89.72
68230;BME280;55048;52.220;5.160;2023-03-19T07:21:57;100946.44;;;8.96;89.68
68230;BME280;55048;52.220;5.160;2023-03-19T07:24:23;101148.59;;;10.27;90.12
68230;BME280;55048;52.220;5.160;2023-03-19T07:26:48;101146.09;;;10.13;89.76
68230;BME280;55048;52.220;5.160;2023-03-19T07:29:14;101230.44;;;10.55;90.02
68230;BME280;55048;52.220;5.160;2023-03-19T07:31:39;101043.06;;;9.37;89.96
68230;BME280;55048;52.220;5.160;2023-03-19T07:34:05;101055.41;;;9.31;90.06
68230;BME280;55048;52.220;5.160;2023-03-19T07:36:31;101015.00;;;9.29;90.76
68230;BME280;55048;52.220;5.160;2023-03-19T07:38:56;101160.47;;;10.24;90.36
68230;BME280;55048;52.220;5.160;2023-03-19T07:41:22;101130.47;;;10.05;90.15
68230;BME280;55048;52.220;5.160;2023-03-19T07:43:47;100986.66;;;9.11;89.87
68230;BME280;55048;52.220;5.160;2023-03-19T07:46:13;101025.16;;;9.32;89.97
68230;BME280;55048;52.220;5.160;2023-03-19T07:48:38;101003.66;;;9.22;89.93
68230;BME280;55048;52.220;5.160;2023-03-19T07:51:04;101243.97;;;10.65;90.10
68230;BME280;55048;52.220;5.160;2023-03-19T07:53:29;101100.97;;;9.95;90.25
68230;BME280;55048;52.220;5.160;2023-03-19T07:55:55;100977.22;;;9.15;89.96
68230;BME280;55048;52.220;5.160;2023-03-19T07:58:22;101229.56;;;10.72;90.10
68230;BME280;55048;52.220;5.160;2023-03-19T08:00:47;101234.28;;;10.70;90.06
68230;BME280;55048;52.220;5.160;2023-03-19T08:03:13;101190.97;;;10.52;90.10
68230;BME280;55048;52.220;5.160;2023-03-19T08:05:38;101189.38;;;10.51;89.98
68230;BME280;55048;52.220;5.160;2023-03-19T08:08:04;101196.69;;;10.67;89.95
68230;BME280;55048;52.220;5.160;2023-03-19T08:10:29;101181.56;;;10.37;90.15
68230;BME280;55048;52.220;5.160;2023-03-19T08:12:55;101004.69;;;9.39;89.64
68230;BME280;55048;52.220;5.160;2023-03-19T08:15:21;101150.25;;;10.39;89.66
68230;BME280;55048;52.220;5.160;2023-03-19T08:17:46;101004.50;;;9.53;89.61
68230;BME280;55048;52.220;5.160;2023-03-19T08:20:14;101195.75;;;10.61;89.46
68230;BME280;55048;52.220;5.160;2023-03-19T08:22:48;101162.16;;;10.48;89.52
68230;BME280;55048;52.220;5.160;2023-03-19T08:25:15;101020.69;;;9.63;89.19
68230;BME280;55048;52.220;5.160;2023-03-19T08:27:41;101247.44;;;11.07;89.13
68230;BME280;55048;52.220;5.160;2023-03-19T08:30:07;101047.03;;;9.64;89.31
68230;BME280;55048;52.220;5.160;2023-03-19T08:32:34;101205.81;;;10.59;89.50
68230;BME280;55048;52.220;5.160;2023-03-19T08:34:59;101236.75;;;10.95;89.24
68230;BME280;55048;52.220;5.160;2023-03-19T08:37:25;101220.63;;;10.67;89.70
68230;BME280;55048;52.220;5.160;2023-03-19T08:39:51;101251.03;;;11.13;89.30
68230;BME280;55048;52.220;5.160;2023-03-19T08:42:17;101283.31;;;11.16;88.96
68230;BME280;55048;52.220;5.160;2023-03-19T08:44:43;101216.72;;;10.81;88.59
68230;BME280;55048;52.220;5.160;2023-03-19T08:47:09;101030.22;;;9.70;88.56
68230;BME280;55048;52.220;5.160;2023-03-19T08:49:35;101037.06;;;9.60;88.09
68230;BME280;55048;52.220;5.160;2023-03-19T08:52:02;101260.63;;;11.14;87.89
68230;BME280;55048;52.220;5.160;2023-03-19T08:54:28;101176.19;;;10.56;87.99
68230;BME280;55048;52.220;5.160;2023-03-19T08:56:53;101214.06;;;10.81;87.87
68230;BME280;55048;52.220;5.160;2023-03-19T08:59:19;101095.91;;;10.05;87.89
68230;BME280;55048;52.220;5.160;2023-03-19T09:01:44;101211.28;;;10.76;88.05
68230;BME280;55048;52.220;5.160;2023-03-19T09:04:09;101279.50;;;11.12;88.02
68230;BME280;55048;52.220;5.160;2023-03-19T09:06:35;101172.50;;;10.57;88.01
68230;BME280;55048;52.220;5.160;2023-03-19T09:09:00;101180.50;;;10.68;88.12
68230;BME280;55048;52.220;5.160;2023-03-19T09:11:26;101215.81;;;10.87;88.38
68230;BME280;55048;52.220;5.160;2023-03-19T09:13:51;101258.91;;;11.19;88.28
68230;BME280;55048;52.220;5.160;2023-03-19T09:16:16;101305.81;;;11.44;87.93
68230;BME280;55048;52.220;5.160;2023-03-19T09:18:42;101227.63;;;11.03;87.77
68230;BME280;55048;52.220;5.160;2023-03-19T09:21:08;101255.09;;;11.15;87.99
68230;BME280;55048;52.220;5.160;2023-03-19T09:23:33;101296.66;;;11.52;87.81
68230;BME280;55048;52.220;5.160;2023-03-19T09:25:59;101202.75;;;10.97;87.41
68230;BME280;55048;52.220;5.160;2023-03-19T09:28:24;101252.34;;;11.34;87.34
68230;BME280;55048;52.220;5.160;2023-03-19T09:30:50;101252.09;;;11.35;87.27
68230;BME280;55048;52.220;5.160;2023-03-19T09:33:17;101312.88;;;11.73;87.16
68230;BME280;55048;52.220;5.160;2023-03-19T09:35:49;101308.28;;;11.81;86.99
68230;BME280;55048;52.220;5.160;2023-03-19T09:38:15;101279.06;;;11.62;86.83
68230;BME280;55048;52.220;5.160;2023-03-19T09:40:43;101260.44;;;11.39;86.79
68230;BME280;55048;52.220;5.160;2023-03-19T09:45:58;101339.53;;;11.73;86.65
68230;BME280;55048;52.220;5.160;2023-03-19T09:48:38;101330.50;;;11.63;86.66
68230;BME280;55048;52.220;5.160;2023-03-19T09:51:07;101236.78;;;11.07;86.58
68230;BME280;55048;52.220;5.160;2023-03-19T09:56:21;101277.00;;;11.29;86.18
68230;BME280;55048;52.220;5.160;2023-03-19T09:58:46;101316.94;;;11.53;86.77
68230;BME280;55048;52.220;5.160;2023-03-19T10:01:24;101343.50;;;11.71;86.46
68230;BME280;55048;52.220;5.160;2023-03-19T10:06:25;101352.91;;;11.85;86.15
68230;BME280;55048;52.220;5.160;2023-03-19T10:12:09;101350.56;;;11.89;86.65
68230;BME280;55048;52.220;5.160;2023-03-19T10:14:50;101352.41;;;11.88;86.80
68230;BME280;55048;52.220;5.160;2023-03-19T10:17:39;101345.72;;;11.86;86.57
68230;BME280;55048;52.220;5.160;2023-03-19T10:22:46;101251.03;;;11.36;85.95
68230;BME280;55048;52.220;5.160;2023-03-19T10:25:23;101263.88;;;11.51;86.00
68230;BME280;55048;52.220;5.160;2023-03-19T10:28:09;101333.53;;;12.02;85.68
68230;BME280;55048;52.220;5.160;2023-03-19T10:30:36;101330.06;;;12.01;85.71
68230;BME280;55048;52.220;5.160;2023-03-19T10:33:16;101342.78;;;12.22;85.50
68230;BME280;55048;52.220;5.160;2023-03-19T10:35:48;101298.91;;;11.90;85.27
68230;BME280;55048;52.220;5.160;2023-03-19T10:38:22;101363.72;;;12.42;85.10
68230;BME280;55048;52.220;5.160;2023-03-19T10:43:51;101306.88;;;12.13;84.61
68230;BME280;55048;52.220;5.160;2023-03-19T10:46:17;101341.94;;;12.34;84.50
68230;BME280;55048;52.220;5.160;2023-03-19T10:48:45;101335.69;;;12.28;84.54
68230;BME280;55048;52.220;5.160;2023-03-19T10:51:22;101350.28;;;12.37;84.52
68230;BME280;55048;52.220;5.160;2023-03-19T10:53:51;101245.13;;;11.69;84.22
68230;BME280;55048;52.220;5.160;2023-03-19T10:56:20;101337.47;;;12.22;84.33
68230;BME280;55048;52.220;5.160;2023-03-19T10:59:00;101388.28;;;12.56;84.40
68230;BME280;55048;52.220;5.160;2023-03-19T11:01:31;101390.50;;;12.59;84.21
68230;BME280;55048;52.220;5.160;2023-03-19T11:03:58;101385.38;;;12.58;84.30
68230;BME280;55048;52.220;5.160;2023-03-19T11:06:25;101383.31;;;12.60;84.10
68230;BME280;55048;52.220;5.160;2023-03-19T11:08:57;101363.72;;;12.42;84.01
68230;BME280;55048;52.220;5.160;2023-03-19T11:11:45;101390.16;;;12.56;83.95
68230;BME280;55048;52.220;5.160;2023-03-19T11:14:17;101313.94;;;12.08;83.87
68230;BME280;55048;52.220;5.160;2023-03-19T11:19:21;101385.03;;;12.54;84.28
68230;BME280;55048;52.220;5.160;2023-03-19T11:22:07;101386.88;;;12.54;83.95
68230;BME280;55048;52.220;5.160;2023-03-19T11:24:40;101390.16;;;12.56;83.83
68230;BME280;55048;52.220;5.160;2023-03-19T11:27:08;101315.06;;;12.12;83.68
68230;BME280;55048;52.220;5.160;2023-03-19T11:29:40;101393.28;;;12.64;83.47
68230;BME280;55048;52.220;5.160;2023-03-19T11:32:29;101384.56;;;12.69;83.13
68230;BME280;55048;52.220;5.160;2023-03-19T11:37:40;101390.34;;;12.66;83.30
68230;BME280;55048;52.220;5.160;2023-03-19T11:40:30;101377.72;;;12.61;83.65
68230;BME280;55048;52.220;5.160;2023-03-19T11:45:50;101361.38;;;12.58;83.23
68230;BME280;55048;52.220;5.160;2023-03-19T11:48:36;101363.91;;;12.64;83.07
68230;BME280;55048;52.220;5.160;2023-03-19T11:51:18;101390.75;;;12.86;83.28
68230;BME280;55048;52.220;5.160;2023-03-19T11:53:51;101398.44;;;12.83;83.15
68230;BME280;55048;52.220;5.160;2023-03-19T11:56:47;101394.28;;;12.75;82.85
68230;BME280;55048;52.220;5.160;2023-03-19T11:59:43;101401.59;;;12.68;83.14
68230;BME280;55048;52.220;5.160;2023-03-19T12:05:28;101408.53;;;12.81;82.39
68230;BME280;55048;52.220;5.160;2023-03-19T12:08:16;101405.38;;;12.84;82.09
68230;BME280;55048;52.220;5.160;2023-03-19T12:11:15;101405.13;;;12.85;82.02
68230;BME280;55048;52.220;5.160;2023-03-19T12:24:44;101418.28;;;12.75;81.50
68230;BME280;55048;52.220;5.160;2023-03-19T12:27:30;101419.81;;;12.71;81.14
68230;BME280;55048;52.220;5.160;2023-03-19T12:35:35;101431.53;;;12.58;81.07
68230;BME280;55048;52.220;5.160;2023-03-19T12:38:25;101399.69;;;12.40;80.58
68230;BME280;55048;52.220;5.160;2023-03-19T12:40:58;101400.72;;;12.39;80.56
68230;BME280;55048;52.220;5.160;2023-03-19T12:46:26;101431.09;;;12.61;80.68
68230;BME280;55048;52.220;5.160;2023-03-19T12:49:03;101438.41;;;12.54;81.26
68230;BME280;55048;52.220;5.160;2023-03-19T12:51:35;101416.13;;;12.48;81.13
68230;BME280;55048;52.220;5.160;2023-03-19T12:54:27;101446.97;;;12.68;80.90
68230;BME280;55048;52.220;5.160;2023-03-19T12:57:02;101417.28;;;12.52;80.80
68230;BME280;55048;52.220;5.160;2023-03-19T13:02:46;101434.56;;;12.73;81.20
68230;BME280;55048;52.220;5.160;2023-03-19T13:08:08;101446.59;;;12.88;80.73
68230;BME280;55048;52.220;5.160;2023-03-19T13:10:36;101358.16;;;12.44;80.72
68230;BME280;55048;52.220;5.160;2023-03-19T13:13:16;101374.25;;;12.61;80.71
68230;BME280;55048;52.220;5.160;2023-03-19T13:15:47;101394.13;;;12.82;80.35
68230;BME280;55048;52.220;5.160;2023-03-19T13:21:20;101313.66;;;12.73;79.22
68230;BME280;55048;52.220;5.160;2023-03-19T13:23:49;101329.78;;;12.95;78.98
68230;BME280;55048;52.220;5.160;2023-03-19T13:26:16;101427.13;;;13.78;78.60
68230;BME280;55048;52.220;5.160;2023-03-19T13:28:55;101435.13;;;13.78;77.30
68230;BME280;55048;52.220;5.160;2023-03-19T13:31:25;101384.59;;;13.60;77.22
68230;BME280;55048;52.220;5.160;2023-03-19T13:36:51;101436.75;;;13.79;76.13
68230;BME280;55048;52.220;5.160;2023-03-19T13:39:19;101427.53;;;13.87;76.15
68230;BME280;55048;52.220;5.160;2023-03-19T13:41:57;101439.59;;;14.06;75.71
68230;BME280;55048;52.220;5.160;2023-03-19T13:46:56;101451.41;;;14.27;75.08
68230;BME280;55048;52.220;5.160;2023-03-19T13:49:32;101456.59;;;14.17;74.50
68230;BME280;55048;52.220;5.160;2023-03-19T13:54:38;101443.28;;;14.22;74.67
68230;BME280;55048;52.220;5.160;2023-03-19T13:59:42;101433.84;;;14.14;74.67
68230;BME280;55048;52.220;5.160;2023-03-19T14:05:06;101424.00;;;14.20;74.51
68230;BME280;55048;52.220;5.160;2023-03-19T14:07:39;101385.22;;;14.00;74.38
68230;BME280;55048;52.220;5.160;2023-03-19T14:12:42;101434.91;;;14.35;73.82
68230;BME280;55048;52.220;5.160;2023-03-19T14:23:01;101468.75;;;14.24;73.68
68230;BME280;55048;52.220;5.160;2023-03-19T14:25:54;101468.69;;;14.19;73.84
68230;BME280;55048;52.220;5.160;2023-03-19T14:28:51;101428.72;;;13.79;73.94
68230;BME280;55048;52.220;5.160;2023-03-19T14:31:29;101457.56;;;13.94;74.33